Time;durP1;ratioP1;P1;durP2;ratioP2;P2;SDS_P1;SDS_P2;PMS_P1;PMS_P2;Temp;Humidity;BMP_temperature;BMP_pressure;BME280_temperature;BME280_humidity;BME280_pressure;Samples;Min_cycle;Max_cycle;Signal;HPM_P1;HPM_P2
2023/06/15 00:01:55;;;;;;;5.07;4.67;;;14.70;99.90;;;;;;5055187;28;20322;-81
2023/06/15 00:04:22;;;;;;;4.43;4.13;;;14.70;99.90;;;;;;5055445;28;20208;-80
2023/06/15 00:06:48;;;;;;;5.00;4.50;;;14.70;99.90;;;;;;5055724;28;20537;-82
2023/06/15 00:09:13;;;;;;;4.83;4.37;;;14.70;99.90;;;;;;5055531;28;20175;-83
2023/06/15 00:11:39;;;;;;;5.13;4.73;;;14.70;99.90;;;;;;5056621;28;20262;-83
2023/06/15 00:14:07;;;;;;;4.60;4.30;;;14.80;99.90;;;;;;5065863;28;20203;-82
2023/06/15 00:16:32;;;;;;;4.50;4.10;;;14.80;99.90;;;;;;5073925;28;20184;-80
2023/06/15 00:18:59;;;;;;;4.67;4.37;;;14.80;99.90;;;;;;5064980;28;20517;-81
2023/06/15 00:21:26;;;;;;;4.80;4.40;;;14.80;99.90;;;;;;5057095;28;20195;-81
2023/06/15 00:23:52;;;;;;;5.37;4.93;;;14.70;99.90;;;;;;5054615;28;20191;-80
2023/06/15 00:26:17;;;;;;;4.80;4.40;;;14.60;99.90;;;;;;5055477;28;20206;-81
2023/06/15 00:28:43;;;;;;;6.60;4.93;;;14.60;99.90;;;;;;5054608;28;20578;-80
2023/06/15 00:31:09;;;;;;;4.47;4.17;;;14.50;99.90;;;;;;5037256;28;20478;-80
2023/06/15 00:33:34;;;;;;;5.03;4.63;;;14.50;99.90;;;;;;5055056;28;20175;-82
2023/06/15 00:36:00;;;;;;;5.43;4.33;;;14.50;99.90;;;;;;5055785;28;20152;-81
2023/06/15 00:38:26;;;;;;;4.23;4.03;;;14.10;99.90;;;;;;5036768;28;20599;-83
2023/06/15 00:40:52;;;;;;;4.93;4.53;;;14.40;99.90;;;;;;5044008;28;20210;-80
2023/06/15 00:43:21;;;;;;;5.07;4.57;;;14.40;99.90;;;;;;5065331;28;20183;-83
2023/06/15 00:45:46;;;;;;;4.83;4.53;;;14.40;99.90;;;;;;5061344;28;20202;-82
2023/06/15 00:48:13;;;;;;;5.10;4.70;;;14.40;99.90;;;;;;5057467;28;20179;-81
2023/06/15 00:50:41;;;;;;;4.73;4.33;;;14.40;99.90;;;;;;5059325;28;20175;-81
2023/06/15 00:53:09;;;;;;;4.63;4.33;;;14.30;99.90;;;;;;5066723;28;20245;-81
2023/06/15 00:55:35;;;;;;;4.83;4.43;;;14.40;99.90;;;;;;5055836;28;20602;-80
2023/06/15 00:58:02;;;;;;;4.93;4.40;;;14.50;99.90;;;;;;5054650;28;20509;-82
2023/06/15 01:00:32;;;;;;;4.43;4.10;;;14.60;99.90;;;;;;5055079;28;20220;-82
2023/06/15 01:02:59;;;;;;;4.60;4.30;;;14.60;99.90;;;;;;5056008;28;20170;-81
2023/06/15 01:05:25;;;;;;;4.30;4.00;;;14.50;99.90;;;;;;5057253;28;20210;-82
2023/06/15 01:07:54;;;;;;;4.77;4.40;;;14.50;99.90;;;;;;5055208;28;20174;-82
2023/06/15 01:10:23;;;;;;;5.10;4.30;;;14.60;99.90;;;;;;5077794;28;20156;-83
2023/06/15 01:12:53;;;;;;;4.60;4.27;;;14.50;99.90;;;;;;5078307;28;20214;-83
2023/06/15 01:15:21;;;;;;;4.53;4.23;;;14.50;99.90;;;;;;5055688;28;20187;-79
2023/06/15 01:17:53;;;;;;;5.13;4.60;;;14.50;99.90;;;;;;5059941;28;20168;-80
2023/06/15 01:20:27;;;;;;;5.27;4.70;;;14.40;99.90;;;;;;5060122;28;20254;-82
2023/06/15 01:23:12;;;;;;;5.30;4.90;;;14.30;99.90;;;;;;5053852;28;20235;-82
2023/06/15 01:26:03;;;;;;;5.17;4.77;;;14.30;99.90;;;;;;5053450;28;20168;-79
2023/06/15 01:28:30;;;;;;;4.63;4.33;;;14.20;99.90;;;;;;5055026;28;20148;-81
2023/06/15 01:30:57;;;;;;;6.20;4.93;;;14.20;99.90;;;;;;5052831;28;20171;-81
2023/06/15 01:33:24;;;;;;;4.97;4.50;;;14.20;99.90;;;;;;5052700;28;20179;-81
2023/06/15 01:35:50;;;;;;;5.00;4.70;;;14.20;99.90;;;;;;5052706;28;20210;-80
2023/06/15 01:38:20;;;;;;;4.90;4.50;;;14.20;99.90;;;;;;5053076;28;20635;-80
2023/06/15 01:40:49;;;;;;;5.37;4.87;;;14.20;99.90;;;;;;5055283;28;20526;-80
2023/06/15 01:43:22;;;;;;;4.63;4.10;;;14.10;99.90;;;;;;5053227;28;20186;-83
2023/06/15 01:45:50;;;;;;;4.97;4.50;;;14.10;99.90;;;;;;5052987;28;20160;-82
2023/06/15 01:48:16;;;;;;;5.30;4.80;;;14.10;99.90;;;;;;5052600;28;20172;-80
2023/06/15 01:50:42;;;;;;;4.70;4.40;;;14.10;99.90;;;;;;5053790;28;20225;-83
2023/06/15 01:53:08;;;;;;;5.33;4.77;;;14.10;99.90;;;;;;5053019;28;20175;-82
2023/06/15 01:55:34;;;;;;;5.30;4.53;;;14.10;99.90;;;;;;5053326;28;20250;-82
2023/06/15 01:58:00;;;;;;;4.73;4.40;;;14.10;99.90;;;;;;5052541;28;20237;-80
2023/06/15 02:00:26;;;;;;;5.43;4.90;;;14.10;99.90;;;;;;5052900;28;20227;-81
2023/06/15 02:02:53;;;;;;;5.33;4.40;;;14.00;99.90;;;;;;5047230;28;20191;-81
2023/06/15 02:05:19;;;;;;;5.30;4.90;;;14.00;99.90;;;;;;5054423;28;20616;-81
2023/06/15 02:07:45;;;;;;;5.37;4.87;;;14.00;99.90;;;;;;5052966;28;20171;-81
2023/06/15 02:10:11;;;;;;;5.50;4.90;;;14.10;99.90;;;;;;5055141;28;20176;-81
2023/06/15 02:12:37;;;;;;;5.93;4.70;;;14.00;99.90;;;;;;5056842;28;20172;-81
2023/06/15 02:15:03;;;;;;;5.07;4.67;;;14.00;99.90;;;;;;5040123;28;20188;-81
2023/06/15 02:17:32;;;;;;;5.20;4.80;;;13.90;99.90;;;;;;5063791;28;20200;-81
2023/06/15 02:19:58;;;;;;;4.70;4.40;;;13.90;99.90;;;;;;5076397;28;20180;-81
2023/06/15 02:22:24;;;;;;;4.80;4.40;;;13.80;99.90;;;;;;5053089;28;20211;-81
2023/06/15 02:24:50;;;;;;;5.10;4.70;;;13.80;99.90;;;;;;5041187;28;20536;-82
2023/06/15 02:27:15;;;;;;;4.93;4.53;;;13.80;99.90;;;;;;5056430;28;20171;-80
2023/06/15 02:29:41;;;;;;;5.03;4.63;;;13.80;99.90;;;;;;5062343;28;20514;-80
2023/06/15 02:32:09;;;;;;;4.73;4.33;;;13.80;99.90;;;;;;5055629;28;20259;-81
2023/06/15 02:34:36;;;;;;;4.93;4.53;;;13.80;99.90;;;;;;5056697;28;20168;-80
2023/06/15 02:37:02;;;;;;;4.77;4.37;;;13.80;99.90;;;;;;5055226;28;20190;-80
2023/06/15 02:39:28;;;;;;;5.30;4.67;;;13.80;99.90;;;;;;5055647;28;20175;-80
2023/06/15 02:41:54;;;;;;;5.53;5.03;;;13.80;99.90;;;;;;5055430;28;20642;-82
2023/06/15 02:44:21;;;;;;;5.47;4.97;;;13.80;99.90;;;;;;5055826;28;20172;-81
2023/06/15 02:46:47;;;;;;;4.77;4.43;;;13.70;99.90;;;;;;5055422;28;20624;-82
2023/06/15 02:49:12;;;;;;;5.47;4.97;;;13.70;99.90;;;;;;5055219;28;20252;-81
2023/06/15 02:51:39;;;;;;;4.87;4.47;;;13.70;99.90;;;;;;5037512;28;20180;-81
2023/06/15 02:54:06;;;;;;;4.83;4.47;;;13.70;99.90;;;;;;5055229;28;20179;-81
2023/06/15 02:56:34;;;;;;;5.10;4.70;;;13.70;99.90;;;;;;5055290;28;20172;-81
2023/06/15 02:59:00;;;;;;;5.40;5.00;;;13.60;99.90;;;;;;5055085;28;20182;-81
2023/06/15 03:01:34;;;;;;;5.57;5.07;;;13.60;99.90;;;;;;5054585;28;20227;-81
2023/06/15 03:04:00;;;;;;;5.40;4.67;;;13.60;99.90;;;;;;5037115;28;20500;-82
2023/06/15 03:06:26;;;;;;;4.87;4.57;;;13.60;99.90;;;;;;5054710;28;20185;-80
2023/06/15 03:08:51;;;;;;;5.07;4.67;;;13.60;99.90;;;;;;5054670;28;20168;-82
2023/06/15 03:11:17;;;;;;;5.20;4.70;;;13.60;99.90;;;;;;5054658;28;20183;-81
2023/06/15 03:13:43;;;;;;;5.03;4.57;;;13.60;99.90;;;;;;5054630;28;20172;-81
2023/06/15 03:16:09;;;;;;;5.63;4.60;;;13.70;99.90;;;;;;5036852;28;20701;-80
2023/06/15 03:18:34;;;;;;;5.00;4.70;;;13.60;99.90;;;;;;5054448;28;20701;-81
2023/06/15 03:21:01;;;;;;;5.17;4.67;;;13.60;99.90;;;;;;5053542;28;20196;-81
2023/06/15 03:23:26;;;;;;;4.83;4.43;;;13.60;99.90;;;;;;5054501;28;20172;-82
2023/06/15 03:25:52;;;;;;;4.90;4.60;;;13.60;99.90;;;;;;5054808;28;20168;-83
2023/06/15 03:28:27;;;;;;;4.90;4.40;;;13.60;99.90;;;;;;5054848;28;20175;-82
2023/06/15 03:30:56;;;;;;;4.90;4.50;;;13.70;99.90;;;;;;5057708;28;20583;-82
2023/06/15 03:33:22;;;;;;;4.80;4.40;;;13.70;99.90;;;;;;5036379;28;20183;-84
2023/06/15 03:35:53;;;;;;;4.60;4.30;;;13.70;99.90;;;;;;5059244;28;20176;-81
2023/06/15 03:38:20;;;;;;;5.23;4.73;;;13.70;99.90;;;;;;5070065;28;20230;-80
2023/06/15 03:40:45;;;;;;;4.70;4.40;;;13.80;99.90;;;;;;5057169;28;20196;-81
2023/06/15 03:43:13;;;;;;;5.23;4.23;;;13.70;99.90;;;;;;5054656;28;20179;-82
2023/06/15 03:45:39;;;;;;;5.23;4.63;;;13.70;99.90;;;;;;5054258;28;20172;-81
2023/06/15 03:48:05;;;;;;;4.87;4.47;;;13.70;99.90;;;;;;5054072;28;20265;-82
2023/06/15 03:50:31;;;;;;;5.20;4.80;;;13.80;99.90;;;;;;5073489;28;20227;-79
2023/06/15 03:52:57;;;;;;;4.87;4.57;;;13.90;99.90;;;;;;5068927;28;20164;-81
2023/06/15 03:55:23;;;;;;;4.57;4.27;;;13.90;99.90;;;;;;5073560;28;20291;-81
2023/06/15 03:57:48;;;;;;;5.53;4.53;;;14.00;99.90;;;;;;5053959;28;20172;-82
2023/06/15 04:00:14;;;;;;;4.80;4.40;;;14.00;99.90;;;;;;5054013;28;20686;-82
2023/06/15 04:02:40;;;;;;;4.60;4.30;;;14.00;99.90;;;;;;5054571;28;20215;-82
2023/06/15 04:05:06;;;;;;;4.77;4.37;;;14.00;99.90;;;;;;5065200;28;20168;-82
2023/06/15 04:07:32;;;;;;;5.00;4.60;;;14.00;99.90;;;;;;5058694;28;20801;-80
2023/06/15 04:09:59;;;;;;;4.73;4.33;;;14.10;99.90;;;;;;5053805;28;20592;-81
2023/06/15 04:12:25;;;;;;;4.43;4.03;;;14.20;99.90;;;;;;5053543;28;20178;-81
2023/06/15 04:14:50;;;;;;;5.07;4.57;;;14.20;99.90;;;;;;5053823;28;20258;-81
2023/06/15 04:17:18;;;;;;;4.77;4.47;;;14.20;99.90;;;;;;5042101;28;20184;-79
2023/06/15 04:19:44;;;;;;;5.97;5.47;;;14.30;99.90;;;;;;5062427;28;20176;-81
2023/06/15 04:22:10;;;;;;;5.17;4.60;;;14.40;99.90;;;;;;5056314;28;20206;-80
2023/06/15 04:24:36;;;;;;;5.37;4.80;;;14.40;99.90;;;;;;5054676;28;20636;-80
2023/06/15 04:27:02;;;;;;;4.37;4.07;;;14.30;99.90;;;;;;5053441;28;20189;-81
2023/06/15 04:29:30;;;;;;;5.33;4.83;;;14.30;99.90;;;;;;5053654;28;20167;-82
2023/06/15 04:31:58;;;;;;;4.40;4.10;;;14.40;99.90;;;;;;5053457;28;20186;-82
2023/06/15 04:34:26;;;;;;;4.70;4.40;;;14.50;99.90;;;;;;5052830;28;20644;-81
2023/06/15 04:36:52;;;;;;;4.50;4.20;;;14.50;99.90;;;;;;5053031;28;20203;-80
2023/06/15 04:39:22;;;;;;;4.97;4.57;;;14.70;99.90;;;;;;5053110;28;20270;-81
2023/06/15 04:41:48;;;;;;;4.30;4.00;;;14.70;99.90;;;;;;5052637;28;20663;-81
2023/06/15 04:44:14;;;;;;;4.33;4.03;;;14.60;99.90;;;;;;5052827;28;20175;-81
2023/06/15 04:46:41;;;;;;;7.20;5.07;;;14.70;99.90;;;;;;5035310;28;20184;-81
2023/06/15 04:49:08;;;;;;;4.57;4.17;;;14.60;99.90;;;;;;5052282;28;20175;-81
2023/06/15 04:51:34;;;;;;;4.60;4.23;;;14.60;99.90;;;;;;5052671;28;20190;-80
2023/06/15 04:54:00;;;;;;;4.47;4.07;;;14.70;99.90;;;;;;5034524;28;20656;-82
2023/06/15 04:56:26;;;;;;;5.20;4.53;;;14.70;99.90;;;;;;5052763;28;20194;-81
2023/06/15 04:58:52;;;;;;;4.73;4.33;;;14.90;99.90;;;;;;5034848;28;20640;-82
2023/06/15 05:01:18;;;;;;;5.00;4.50;;;15.00;99.90;;;;;;5052405;28;20240;-80
2023/06/15 05:03:45;;;;;;;4.40;4.00;;;15.00;99.90;;;;;;5052751;28;20175;-81
2023/06/15 05:06:11;;;;;;;4.60;4.30;;;14.90;99.90;;;;;;5052499;28;20178;-80
2023/06/15 05:08:37;;;;;;;4.30;4.00;;;14.80;99.90;;;;;;5052528;28;20225;-82
2023/06/15 05:11:03;;;;;;;5.63;4.30;;;14.80;99.90;;;;;;5052584;28;20218;-81
2023/06/15 05:13:30;;;;;;;4.53;4.17;;;14.80;99.90;;;;;;5052278;28;20199;-82
2023/06/15 05:15:56;;;;;;;4.87;4.47;;;14.80;99.90;;;;;;5034054;28;20180;-82
2023/06/15 05:18:22;;;;;;;5.87;5.03;;;14.90;99.90;;;;;;5052077;28;20184;-82
2023/06/15 05:20:48;;;;;;;5.20;4.70;;;14.90;99.90;;;;;;5056492;28;20608;-79
2023/06/15 05:23:14;;;;;;;4.90;4.40;;;15.00;99.90;;;;;;5052957;28;20181;-81
2023/06/15 05:25:39;;;;;;;7.53;5.50;;;15.10;99.90;;;;;;5052864;28;20167;-81
2023/06/15 05:28:06;;;;;;;5.33;4.43;;;15.20;99.90;;;;;;5052309;28;20594;-82
2023/06/15 05:30:32;;;;;;;4.70;4.30;;;15.20;99.90;;;;;;5055055;28;20249;-82
2023/06/15 05:32:57;;;;;;;4.73;4.33;;;15.30;99.90;;;;;;5061002;28;20180;-82
2023/06/15 05:35:23;;;;;;;4.60;4.20;;;15.40;99.90;;;;;;5038273;28;20180;-82
2023/06/15 05:37:49;;;;;;;4.37;4.07;;;15.40;99.90;;;;;;5035526;28;20188;-83
2023/06/15 05:40:14;;;;;;;4.70;4.30;;;15.50;99.90;;;;;;5053471;28;20169;-81
2023/06/15 05:42:40;;;;;;;4.10;3.80;;;15.60;99.90;;;;;;5063745;28;20231;-80
2023/06/15 05:45:06;;;;;;;4.57;3.90;;;15.70;99.90;;;;;;5046567;28;20172;-80
2023/06/15 05:47:32;;;;;;;4.77;4.37;;;15.80;99.90;;;;;;5038542;28;20398;-83
2023/06/15 05:50:54;;;;;;;4.47;4.17;;;15.70;99.90;;;;;;5018898;27;2155973;-77
2023/06/15 05:53:20;;;;;;;4.30;3.90;;;15.80;99.90;;;;;;5070761;28;20175;-80
2023/06/15 05:55:46;;;;;;;5.00;4.60;;;15.90;99.90;;;;;;5070731;28;20171;-77
2023/06/15 05:58:11;;;;;;;5.07;4.67;;;15.90;99.90;;;;;;5052581;28;20179;-78
2023/06/15 06:00:37;;;;;;;4.70;4.30;;;15.90;99.90;;;;;;5070613;28;20186;-80
2023/06/15 06:03:03;;;;;;;5.53;4.37;;;15.80;99.90;;;;;;5069967;28;20628;-77
2023/06/15 06:05:29;;;;;;;4.90;4.50;;;15.80;99.90;;;;;;5076826;28;20179;-76
2023/06/15 06:07:55;;;;;;;6.20;4.03;;;15.90;99.90;;;;;;5052608;28;20182;-77
2023/06/15 06:10:21;;;;;;;4.80;4.40;;;15.90;99.90;;;;;;5070594;28;20202;-76
2023/06/15 06:12:47;;;;;;;5.93;4.50;;;16.00;99.90;;;;;;5076068;28;20167;-77
2023/06/15 06:15:12;;;;;;;4.27;3.93;;;16.00;99.90;;;;;;5059856;28;20175;-78
2023/06/15 06:17:38;;;;;;;6.37;4.30;;;16.10;99.90;;;;;;5078337;28;20582;-77
2023/06/15 06:20:04;;;;;;;5.03;4.30;;;16.30;99.90;;;;;;5078753;28;20225;-78
2023/06/15 06:22:30;;;;;;;4.10;3.80;;;16.40;99.90;;;;;;5076363;28;20169;-78
2023/06/15 06:24:56;;;;;;;5.70;3.67;;;16.30;99.90;;;;;;5070008;28;20185;-77
2023/06/15 06:27:22;;;;;;;4.50;4.10;;;16.30;99.90;;;;;;5052909;28;20172;-77
2023/06/15 06:29:48;;;;;;;4.07;3.67;;;16.30;99.90;;;;;;5070553;28;20214;-76
2023/06/15 06:32:13;;;;;;;5.07;4.07;;;16.50;99.90;;;;;;5070687;28;20175;-77
2023/06/15 06:34:39;;;;;;;4.67;4.27;;;16.60;99.90;;;;;;5072117;28;20174;-77
2023/06/15 06:37:05;;;;;;;4.17;3.90;;;16.70;99.90;;;;;;5052893;28;20171;-78
2023/06/15 06:39:34;;;;;;;5.60;4.40;;;16.60;99.90;;;;;;5070393;28;20176;-76
2023/06/15 06:42:00;;;;;;;4.00;3.70;;;16.60;99.90;;;;;;5070053;28;20222;-76
2023/06/15 06:44:26;;;;;;;4.40;4.10;;;16.70;99.90;;;;;;5069739;28;20167;-76
2023/06/15 06:46:52;;;;;;;4.57;4.27;;;16.70;99.90;;;;;;5069429;28;20176;-75
2023/06/15 06:49:18;;;;;;;4.63;4.23;;;16.60;99.90;;;;;;5069924;28;20215;-76
2023/06/15 06:51:43;;;;;;;4.53;4.13;;;16.70;99.90;;;;;;5069417;28;20180;-76
2023/06/15 06:54:09;;;;;;;5.53;4.43;;;16.80;99.90;;;;;;5071056;28;20167;-77
2023/06/15 06:56:35;;;;;;;4.23;3.93;;;16.90;99.90;;;;;;5050981;28;20183;-76
2023/06/15 06:59:01;;;;;;;4.47;4.10;;;17.10;99.90;;;;;;5068808;28;20164;-77
2023/06/15 07:01:27;;;;;;;4.33;3.80;;;17.10;99.90;;;;;;5059884;28;20167;-76
2023/06/15 07:03:53;;;;;;;5.10;3.93;;;17.30;99.90;;;;;;5055517;28;20240;-76
2023/06/15 07:06:19;;;;;;;5.50;3.63;;;17.20;99.90;;;;;;5055601;28;20643;-78
2023/06/15 07:08:46;;;;;;;4.13;3.73;;;17.40;99.90;;;;;;5072171;28;20179;-80
2023/06/15 07:11:13;;;;;;;4.13;3.83;;;17.40;99.90;;;;;;5053976;28;20206;-79
2023/06/15 07:13:40;;;;;;;4.33;3.93;;;17.50;99.90;;;;;;5059927;28;20200;-76
2023/06/15 07:16:06;;;;;;;3.90;3.60;;;17.50;99.90;;;;;;5059304;28;20221;-78
2023/06/15 07:18:32;;;;;;;5.10;4.10;;;17.50;99.90;;;;;;5075372;28;20270;-78
2023/06/15 07:20:58;;;;;;;6.17;4.10;;;17.50;99.90;;;;;;5077464;28;20172;-78
2023/06/15 07:23:25;;;;;;;3.90;3.60;;;17.50;99.90;;;;;;5059182;28;20178;-78
2023/06/15 07:25:52;;;;;;;4.57;4.20;;;17.60;99.90;;;;;;5058053;28;20185;-77
2023/06/15 07:28:18;;;;;;;5.37;4.17;;;17.60;99.90;;;;;;5055046;28;20187;-76
2023/06/15 07:30:46;;;;;;;4.30;4.00;;;17.60;99.90;;;;;;5055391;28;20302;-77
2023/06/15 07:33:12;;;;;;;5.53;4.00;;;17.60;99.90;;;;;;5055515;28;20522;-78
2023/06/15 07:35:37;;;;;;;4.50;3.97;;;17.70;99.90;;;;;;5055077;28;20221;-78
2023/06/15 07:38:04;;;;;;;6.33;4.00;;;17.60;99.90;;;;;;5054800;28;20468;-77
2023/06/15 07:40:29;;;;;;;4.30;4.00;;;17.50;99.90;;;;;;5055213;28;20164;-76
2023/06/15 07:42:55;;;;;;;3.93;3.60;;;17.60;99.90;;;;;;5060299;28;20505;-78
2023/06/15 07:45:21;;;;;;;4.33;3.93;;;17.70;99.90;;;;;;5060344;28;20179;-78
2023/06/15 07:47:47;;;;;;;4.23;3.87;;;17.80;99.90;;;;;;5057864;28;20232;-77
2023/06/15 07:50:12;;;;;;;4.73;4.00;;;18.00;99.90;;;;;;5057518;28;20239;-76
2023/06/15 07:52:38;;;;;;;4.60;4.17;;;18.00;99.90;;;;;;5056857;28;20175;-76
2023/06/15 07:55:05;;;;;;;4.47;3.63;;;18.10;99.90;;;;;;5055025;28;20198;-77
2023/06/15 07:57:30;;;;;;;4.30;3.90;;;18.30;99.90;;;;;;5054451;28;20175;-78
2023/06/15 07:59:58;;;;;;;4.27;3.97;;;18.40;99.90;;;;;;5036525;28;20187;-77
2023/06/15 08:02:24;;;;;;;4.33;3.90;;;18.20;99.90;;;;;;5054071;28;20176;-77
2023/06/15 08:04:50;;;;;;;4.33;4.00;;;18.30;99.90;;;;;;5054487;28;20186;-76
2023/06/15 08:07:16;;;;;;;4.20;3.90;;;18.20;99.90;;;;;;5054224;28;20259;-77
2023/06/15 08:09:42;;;;;;;4.53;4.23;;;18.00;99.90;;;;;;5054530;28;20291;-77
2023/06/15 08:12:09;;;;;;;6.23;4.27;;;18.00;99.90;;;;;;5054188;28;20287;-81
2023/06/15 08:14:36;;;;;;;4.47;3.77;;;18.00;99.90;;;;;;5058459;28;20215;-79
2023/06/15 08:17:02;;;;;;;4.73;4.33;;;18.20;99.90;;;;;;5039353;28;20188;-77
2023/06/15 08:19:27;;;;;;;4.40;4.00;;;18.40;99.90;;;;;;5061622;28;20178;-79
2023/06/15 08:21:53;;;;;;;4.30;4.00;;;18.50;99.90;;;;;;5070010;28;20547;-77
2023/06/15 08:24:19;;;;;;;4.03;3.73;;;18.60;99.90;;;;;;5047950;28;20180;-77
2023/06/15 08:26:45;;;;;;;4.23;4.00;;;18.80;99.90;;;;;;5057215;28;20197;-78
2023/06/15 08:29:11;;;;;;;4.10;3.80;;;18.80;99.90;;;;;;5061180;28;20200;-77
2023/06/15 08:31:38;;;;;;;4.40;4.00;;;18.90;99.90;;;;;;5062137;28;20176;-78
2023/06/15 08:34:03;;;;;;;6.27;3.90;;;19.10;99.90;;;;;;5061777;28;20192;-80
2023/06/15 08:36:29;;;;;;;4.30;3.90;;;19.30;99.90;;;;;;5078427;28;20175;-78
2023/06/15 08:38:55;;;;;;;4.30;4.00;;;19.30;99.90;;;;;;5078332;28;20187;-80
2023/06/15 08:41:25;;;;;;;4.40;4.10;;;19.40;99.90;;;;;;5078924;28;20184;-79
2023/06/15 08:43:53;;;;;;;4.07;3.77;;;19.50;99.90;;;;;;5063931;28;20204;-79
2023/06/15 08:46:19;;;;;;;4.20;3.90;;;19.70;99.90;;;;;;5059153;28;20145;-80
2023/06/15 08:48:47;;;;;;;3.93;3.67;;;19.80;99.90;;;;;;5058102;28;20145;-78
2023/06/15 08:51:13;;;;;;;4.17;3.87;;;19.90;99.90;;;;;;5045824;28;20180;-78
2023/06/15 08:53:42;;;;;;;4.00;3.70;;;19.90;99.90;;;;;;5053317;28;20187;-78
2023/06/15 08:56:13;;;;;;;4.10;3.90;;;20.10;99.90;;;;;;5046694;28;20232;-80
2023/06/15 08:58:40;;;;;;;4.20;3.80;;;20.10;99.90;;;;;;5048705;28;20237;-77
2023/06/15 09:01:10;;;;;;;4.00;3.80;;;20.10;99.90;;;;;;5039468;28;20199;-76
2023/06/15 09:03:37;;;;;;;4.07;3.80;;;20.10;99.90;;;;;;5041039;28;20172;-77
2023/06/15 09:06:03;;;;;;;4.23;3.83;;;20.10;99.90;;;;;;5037760;28;20173;-76
2023/06/15 09:08:28;;;;;;;3.37;3.17;;;20.00;99.90;;;;;;5035065;28;20180;-77
2023/06/15 09:11:08;;;;;;;3.90;3.70;;;19.80;99.90;;;;;;5035781;28;20219;-78
2023/06/15 09:13:34;;;;;;;4.07;3.87;;;19.60;99.90;;;;;;5048057;28;20169;-78
2023/06/15 09:16:02;;;;;;;3.70;3.50;;;19.70;99.90;;;;;;5050423;28;20180;-76
2023/06/15 09:18:28;;;;;;;5.13;4.73;;;19.70;99.90;;;;;;5037617;28;20173;-76
2023/06/15 09:20:59;;;;;;;5.10;4.67;;;19.70;99.90;;;;;;5035758;28;20628;-78
2023/06/15 09:23:25;;;;;;;4.10;3.80;;;19.60;99.90;;;;;;5035235;28;20239;-78
2023/06/15 09:25:52;;;;;;;3.30;3.10;;;19.70;99.90;;;;;;5033404;28;20262;-78
2023/06/15 09:28:23;;;;;;;3.80;3.50;;;19.80;99.90;;;;;;5033513;28;20628;-76
2023/06/15 09:30:55;;;;;;;3.77;3.43;;;19.90;99.90;;;;;;5033970;28;20196;-77
2023/06/15 09:33:21;;;;;;;3.53;3.33;;;20.00;99.90;;;;;;5033561;28;20172;-78
2023/06/15 09:36:03;;;;;;;4.00;3.70;;;20.00;99.90;;;;;;5033729;28;20168;-78
2023/06/15 09:38:44;;;;;;;3.70;3.47;;;19.80;99.90;;;;;;5033084;28;20243;-78
2023/06/15 09:41:10;;;;;;;3.57;3.37;;;19.70;99.90;;;;;;5033504;28;20173;-77
2023/06/15 09:43:38;;;;;;;3.87;3.50;;;19.60;99.90;;;;;;5037443;28;20169;-78
2023/06/15 09:46:12;;;;;;;3.50;3.30;;;19.80;99.90;;;;;;5033710;28;20176;-78
2023/06/15 09:48:39;;;;;;;4.33;4.03;;;20.00;99.90;;;;;;5033103;28;20176;-77
2023/06/15 09:51:05;;;;;;;4.13;3.67;;;19.90;99.90;;;;;;5033500;28;20220;-78
2023/06/15 09:53:31;;;;;;;3.70;3.50;;;19.90;99.90;;;;;;5031368;28;20169;-78
2023/06/15 09:55:59;;;;;;;3.97;3.57;;;20.00;99.90;;;;;;5033235;28;20173;-78
2023/06/15 09:58:25;;;;;;;4.80;3.73;;;20.00;99.90;;;;;;5033147;28;20485;-77
2023/06/15 10:00:57;;;;;;;3.40;3.20;;;20.00;99.90;;;;;;5032551;28;20183;-78
2023/06/15 10:03:24;;;;;;;3.50;3.30;;;20.10;99.90;;;;;;5032957;28;20164;-77
2023/06/15 10:05:54;;;;;;;3.50;3.20;;;20.10;99.90;;;;;;5033187;28;20177;-77
2023/06/15 10:08:24;;;;;;;3.40;3.20;;;20.10;99.90;;;;;;5033227;28;20255;-78
2023/06/15 10:10:51;;;;;;;3.80;3.50;;;20.00;99.90;;;;;;5032633;28;20208;-79
2023/06/15 10:13:43;;;;;;;3.70;3.50;;;20.10;99.90;;;;;;5033005;28;20173;-76
2023/06/15 10:16:12;;;;;;;3.70;3.50;;;20.20;99.90;;;;;;5033328;28;20188;-78
2023/06/15 10:18:39;;;;;;;4.13;3.70;;;20.20;99.90;;;;;;5038527;28;20172;-79
2023/06/15 10:21:11;;;;;;;3.33;3.13;;;20.30;99.90;;;;;;5051550;28;20176;-78
2023/06/15 10:23:37;;;;;;;3.80;3.60;;;20.20;99.90;;;;;;5048791;28;20182;-77
2023/06/15 10:26:03;;;;;;;3.40;3.20;;;20.30;99.60;;;;;;5034426;28;20172;-77
2023/06/15 10:28:36;;;;;;;3.17;2.97;;;20.30;99.40;;;;;;5034473;28;20169;-78
2023/06/15 10:31:13;;;;;;;3.73;3.50;;;20.40;99.70;;;;;;5033843;28;20204;-78
2023/06/15 10:33:46;;;;;;;3.87;3.60;;;20.30;99.20;;;;;;5045411;28;20239;-78
2023/06/15 10:36:19;;;;;;;3.57;3.37;;;20.40;99.90;;;;;;5040795;28;20226;-77
2023/06/15 10:38:58;;;;;;;3.73;3.53;;;20.50;99.90;;;;;;5036903;28;20259;-76
2023/06/15 10:41:24;;;;;;;3.67;3.47;;;20.50;99.90;;;;;;5036849;28;20157;-78
2023/06/15 10:43:58;;;;;;;3.23;3.13;;;20.40;99.90;;;;;;5036412;28;20252;-77
2023/06/15 10:46:32;;;;;;;4.00;3.80;;;20.40;99.90;;;;;;5036651;28;20220;-77
2023/06/15 10:49:06;;;;;;;3.07;2.97;;;20.50;99.90;;;;;;5036197;28;20192;-77
2023/06/15 10:51:38;;;;;;;3.90;3.60;;;20.60;99.90;;;;;;5036230;28;20200;-78
2023/06/15 10:54:18;;;;;;;4.10;3.80;;;20.80;99.90;;;;;;5036721;28;20234;-77
2023/06/15 10:56:53;;;;;;;3.50;3.30;;;20.90;99.90;;;;;;5043516;28;20175;-78
2023/06/15 10:59:58;;;;;;;4.00;3.67;;;21.10;99.90;;;;;;5058500;28;20153;-79
2023/06/15 11:02:31;;;;;;;3.63;3.43;;;21.30;99.90;;;;;;4995725;28;20231;-77
2023/06/15 11:05:09;;;;;;;5.27;3.37;;;21.20;99.60;;;;;;4994789;28;20201;-77
2023/06/15 11:07:37;;;;;;;3.70;3.40;;;21.10;99.90;;;;;;4994667;28;20190;-77
2023/06/15 11:10:11;;;;;;;3.60;3.30;;;21.20;99.70;;;;;;4994684;28;20209;-79
2023/06/15 11:12:40;;;;;;;3.43;3.10;;;21.40;99.90;;;;;;4995024;28;20169;-78
2023/06/15 11:15:08;;;;;;;3.87;3.67;;;21.60;99.90;;;;;;4994676;28;20228;-76
2023/06/15 11:18:05;;;;;;;4.37;4.07;;;21.70;99.60;;;;;;4994469;28;20365;-77
2023/06/15 11:20:44;;;;;;;4.17;3.87;;;21.80;99.50;;;;;;4982016;28;20182;-76
2023/06/15 11:23:19;;;;;;;4.03;3.73;;;21.80;99.90;;;;;;4994612;28;20329;-77
2023/06/15 11:25:47;;;;;;;9.03;8.20;;;22.00;99.70;;;;;;4994092;28;20173;-78
2023/06/15 11:28:21;;;;;;;4.17;3.77;;;22.30;99.90;;;;;;4994147;28;20260;-76
2023/06/15 11:30:47;;;;;;;4.37;4.00;;;22.30;99.70;;;;;;4994189;28;20685;-77
2023/06/15 11:33:13;;;;;;;3.23;3.03;;;22.40;98.70;;;;;;5006971;28;20734;-78
2023/06/15 11:35:40;;;;;;;3.97;3.67;;;22.50;99.30;;;;;;5035666;28;20181;-78
2023/06/15 11:38:07;;;;;;;3.30;3.10;;;22.60;99.00;;;;;;5035643;28;20314;-78
2023/06/15 11:40:33;;;;;;;4.03;3.70;;;22.70;98.80;;;;;;5035382;28;20177;-77
2023/06/15 11:43:00;;;;;;;3.30;3.10;;;22.80;98.80;;;;;;5035592;28;20177;-77
2023/06/15 11:45:26;;;;;;;3.45;3.28;;;22.90;98.20;;;;;;5035671;28;20172;-77
2023/06/15 11:47:52;;;;;;;3.20;3.00;;;22.80;97.60;;;;;;5035549;28;20172;-77
2023/06/15 11:50:20;;;;;;;3.90;3.60;;;22.70;97.70;;;;;;5035770;28;20322;-77
2023/06/15 11:52:47;;;;;;;3.72;3.42;;;22.90;97.90;;;;;;5035216;28;20252;-76
2023/06/15 11:55:15;;;;;;;3.88;3.58;;;22.90;97.60;;;;;;5035969;28;20176;-77
2023/06/15 11:57:42;;;;;;;4.23;3.30;;;22.50;97.60;;;;;;5035735;28;20474;-78
2023/06/15 12:00:10;;;;;;;3.17;3.03;;;22.50;98.20;;;;;;5043526;28;20177;-77
2023/06/15 12:02:37;;;;;;;3.10;2.90;;;22.70;98.30;;;;;;5039362;28;20244;-77
2023/06/15 12:05:03;;;;;;;3.33;3.08;;;22.90;98.30;;;;;;5034872;28;20223;-78
2023/06/15 12:07:35;;;;;;;3.33;3.13;;;23.00;97.70;;;;;;5035878;28;20230;-78
2023/06/15 12:10:03;;;;;;;3.83;3.53;;;22.80;96.40;;;;;;5042129;28;20208;-78
2023/06/15 12:12:30;;;;;;;3.78;3.47;;;22.80;97.00;;;;;;5044413;28;20177;-78
2023/06/15 12:14:58;;;;;;;3.58;3.10;;;22.90;97.40;;;;;;5040760;28;20169;-79
2023/06/15 12:17:38;;;;;;;3.95;3.33;;;22.90;97.40;;;;;;5037193;28;20168;-79
2023/06/15 12:20:09;;;;;;;4.93;3.70;;;22.90;97.40;;;;;;5044451;28;20187;-77
2023/06/15 12:22:37;;;;;;;3.37;3.17;;;22.90;97.00;;;;;;5034493;28;20215;-76
2023/06/15 12:25:03;;;;;;;3.10;2.90;;;23.10;96.80;;;;;;5034488;28;20537;-79
2023/06/15 12:27:31;;;;;;;3.28;3.10;;;23.10;96.70;;;;;;5035418;28;20612;-77
2023/06/15 12:30:10;;;;;;;3.58;3.38;;;23.10;97.40;;;;;;5034675;28;20315;-79
2023/06/15 12:32:42;;;;;;;3.42;3.22;;;23.20;96.20;;;;;;5034640;28;20194;-76
2023/06/15 12:35:37;;;;;;;3.30;3.10;;;23.00;96.50;;;;;;5033871;28;20219;-76
2023/06/15 12:38:08;;;;;;;3.55;3.35;;;23.10;96.60;;;;;;5034068;28;20608;-77
2023/06/15 12:40:43;;;;;;;3.10;2.90;;;23.10;96.30;;;;;;5034201;28;20571;-77
2023/06/15 12:43:09;;;;;;;3.15;2.95;;;23.20;96.10;;;;;;5034155;28;20224;-77
2023/06/15 12:45:35;;;;;;;3.67;3.38;;;23.10;95.70;;;;;;5034612;28;20180;-80
2023/06/15 12:48:02;;;;;;;3.38;3.17;;;23.10;95.70;;;;;;5034183;28;20540;-77
2023/06/15 12:50:29;;;;;;;3.50;3.22;;;22.90;95.90;;;;;;5034028;28;20232;-78
2023/06/15 12:52:58;;;;;;;3.45;3.20;;;23.00;96.20;;;;;;5032912;28;20512;-77